Airfield :
LOGIN :

Register | Disclaimer

   EN    FR    IT 

 










Legend :    VFR   Marginal VFR   IFR   Intensive IFR   Very Intensive IFR
Visi :
Ceiling :
>= 8 km
>= 3000ft
5 to 8 km
1000 to 3000 ft
1500m to 5 km
500 to 1000 ft
800 to 1500m
200 to 500 ft
< 800m
< 200 ft
Symbols :   Thunderstorms  Fog  Heavy snow  Heavy precipitations  Wind > 20 kt
SIGMETs :     Misc.  Thunderstorms  Icing  Turbulence  Mountain Waves  Volcanic Ashes






- Airport Elevation : 46 ft
- IATA code : SNN


EINN - Shannon

CURRENT METAR :
  • 271500Z 26012KT 9999 FEW045 08/M01 Q1010 NOSIG

EXPIRED METARs :
  • 271430Z 26012KT 9999 FEW023 08/M00 Q1010 NOSIG
  • 271400Z 27010KT 9999 FEW022 SCT045 07/00 Q1010 NOSIG
  • 271330Z 25010KT 9999 FEW020 SCT040 07/01 Q1010 NOSIG
  • 271300Z 27011KT 9999 SCT020 SCT030 08/01 Q1010 NOSIG
  • 271230Z 27010KT 9999 FEW020 SCT030 07/02 Q1010 NOSIG

TAF TAF EINN
Valid from the 27 at 12:00 until the 28 at 12:00 UTC


271100Z 2712/2812 29010KT 9999 FEW015
BECMG 2714/2716 26009KT
BECMG 2717/2720 16007KT
BECMG 2800/2803 13012KT -RA SCT010 BKN015
BECMG 2805/2807 14016G27KT
TEMPO 2805/2808 5000 RA BKN010
BECMG 2808/2811 20013KT
TEMPO 2808/2811 4000 -RADZ BKN007
PROB40
TEMPO 2808/2811 2000 BKN004



MET'MAP, your aeronautical weather chart ! - Copyright ORBIFLY December 2007 - Disclaimer

ORBIFLY MET'MAP TEAM :

Programming & Development : Alexandra Zaïnal
Concept & original design : Baudouin d'Aumeries
Assistance for programming : Marc-Olivier Méhu
Technical & hardware support : Manuel Goepfert

Contact : metmap@orbifly.com




SOURCES & CREDITS :

   NOAA